Time;durP1;ratioP1;P1;durP2;ratioP2;P2;SDS_P1;SDS_P2;PMS_P1;PMS_P2;Temp;Humidity;BMP_temperature;BMP_pressure;BME280_temperature;BME280_humidity;BME280_pressure;Samples;Min_cycle;Max_cycle;Signal;HPM_P1;HPM_P2
2022/07/13 00:00:26;;;;;;;6.13;5.20;;;;;;;;;;5334753;27;20039;-86
2022/07/13 00:02:58;;;;;;;7.90;5.85;;;;;;;;;;5314084;27;20039;-85
2022/07/13 00:05:32;;;;;;;10.68;5.22;;;;;;;;;;5330327;27;20028;-86
2022/07/13 00:08:03;;;;;;;7.50;5.13;;;;;;;;;;5314402;27;20028;-85
2022/07/13 00:10:35;;;;;;;5.97;5.32;;;;;;;;;;5317213;27;20043;-85
2022/07/13 00:13:06;;;;;;;6.63;5.43;;;;;;;;;;5314830;27;20101;-85
2022/07/13 00:15:37;;;;;;;9.45;5.25;;;;;;;;;;5330421;27;20121;-85
2022/07/13 00:18:13;;;;;;;8.55;5.65;;;;;;;;;;5314054;27;20455;-85
2022/07/13 00:20:45;;;;;;;6.22;5.00;;;;;;;;;;5312327;27;20032;-86
2022/07/13 00:23:19;;;;;;;7.38;4.85;;;;;;;;;;5307834;27;20500;-86
2022/07/13 00:25:50;;;;;;;6.22;5.10;;;;;;;;;;5313112;27;20032;-85
2022/07/13 00:28:25;;;;;;;7.97;5.15;;;;;;;;;;5313354;27;20031;-85
2022/07/13 00:30:57;;;;;;;5.20;4.67;;;;;;;;;;5312133;27;20043;-86
2022/07/13 00:33:28;;;;;;;8.52;4.70;;;;;;;;;;5327968;27;20537;-86
2022/07/13 00:36:02;;;;;;;5.13;4.50;;;;;;;;;;5312713;27;20055;-85
2022/07/13 00:38:36;;;;;;;5.15;4.40;;;;;;;;;;5309637;27;20097;-85
2022/07/13 00:41:10;;;;;;;6.07;4.55;;;;;;;;;;5315852;27;20033;-85
2022/07/13 00:43:44;;;;;;;4.90;4.43;;;;;;;;;;5312291;27;20024;-85
2022/07/13 00:46:16;;;;;;;5.88;4.70;;;;;;;;;;5331159;27;20511;-85
2022/07/13 00:48:53;;;;;;;5.70;4.32;;;;;;;;;;5334793;27;20054;-85
2022/07/13 00:51:24;;;;;;;6.88;4.78;;;;;;;;;;5330810;27;20384;-86
2022/07/13 00:53:55;;;;;;;6.82;4.05;;;;;;;;;;5314789;27;20039;-86
2022/07/13 00:56:30;;;;;;;8.43;4.20;;;;;;;;;;5315085;27;20062;-86
2022/07/13 00:59:04;;;;;;;4.57;4.18;;;;;;;;;;5331293;27;20038;-85
2022/07/13 01:01:35;;;;;;;4.53;4.13;;;;;;;;;;5308495;27;20564;-86
2022/07/13 01:04:07;;;;;;;8.48;4.10;;;;;;;;;;5333580;27;20024;-85
2022/07/13 01:06:38;;;;;;;7.50;4.82;;;;;;;;;;5312620;27;20040;-85
2022/07/13 01:09:09;;;;;;;6.60;3.83;;;;;;;;;;5330155;27;20026;-85
2022/07/13 01:11:41;;;;;;;6.20;4.22;;;;;;;;;;5307781;27;20108;-85
2022/07/13 01:14:17;;;;;;;6.45;4.05;;;;;;;;;;5316024;27;20031;-84
2022/07/13 01:16:51;;;;;;;7.20;4.47;;;;;;;;;;5334441;27;20044;-85
2022/07/13 01:19:29;;;;;;;7.75;4.10;;;;;;;;;;5314603;27;20162;-85
2022/07/13 01:22:02;;;;;;;6.53;3.90;;;;;;;;;;5334465;27;20037;-85
2022/07/13 01:24:36;;;;;;;5.30;3.53;;;;;;;;;;5318741;27;20055;-85
2022/07/13 01:27:15;;;;;;;5.85;4.00;;;;;;;;;;5348188;27;20068;-85
2022/07/13 01:29:47;;;;;;;6.80;3.75;;;;;;;;;;5327787;27;20036;-85
2022/07/13 01:32:19;;;;;;;5.18;3.80;;;;;;;;;;5332862;27;20031;-85
2022/07/13 01:34:50;;;;;;;4.85;3.70;;;;;;;;;;5315420;27;20504;-85
2022/07/13 01:37:24;;;;;;;3.92;3.13;;;;;;;;;;5317559;27;20027;-85
2022/07/13 01:39:59;;;;;;;7.43;3.42;;;;;;;;;;5310748;27;20038;-85
2022/07/13 01:42:30;;;;;;;6.43;3.13;;;;;;;;;;5331891;27;20016;-85
2022/07/13 01:45:01;;;;;;;6.63;3.37;;;;;;;;;;5314490;27;20489;-85
2022/07/13 01:47:36;;;;;;;6.63;3.80;;;;;;;;;;5332720;27;20777;-85
2022/07/13 01:50:10;;;;;;;6.00;3.20;;;;;;;;;;5329795;27;20111;-85
2022/07/13 01:52:44;;;;;;;7.57;3.67;;;;;;;;;;5316009;27;20059;-84
2022/07/13 01:55:16;;;;;;;4.53;3.17;;;;;;;;;;5328469;27;20040;-85
2022/07/13 01:57:55;;;;;;;11.55;4.15;;;;;;;;;;5309209;27;20039;-85
2022/07/13 02:00:27;;;;;;;7.43;3.10;;;;;;;;;;5329831;27;20047;-85
2022/07/13 02:02:58;;;;;;;4.43;3.45;;;;;;;;;;5310768;27;20070;-85
2022/07/13 02:05:32;;;;;;;5.07;2.92;;;;;;;;;;5328610;27;20027;-84
2022/07/13 02:08:04;;;;;;;4.10;3.05;;;;;;;;;;5329132;27;20476;-85
2022/07/13 02:10:38;;;;;;;9.52;3.05;;;;;;;;;;5304265;27;20126;-85
2022/07/13 02:13:13;;;;;;;4.68;3.20;;;;;;;;;;5327426;27;20494;-85
2022/07/13 02:15:44;;;;;;;7.68;3.20;;;;;;;;;;5308397;27;20196;-84
2022/07/13 02:18:18;;;;;;;5.40;3.17;;;;;;;;;;5308396;27;20024;-85
2022/07/13 02:20:55;;;;;;;4.55;3.10;;;;;;;;;;5326150;27;20039;-85
2022/07/13 02:23:29;;;;;;;7.30;3.10;;;;;;;;;;5313264;27;20024;-85
2022/07/13 02:26:03;;;;;;;3.85;3.10;;;;;;;;;;5318368;27;20464;-85
2022/07/13 02:28:36;;;;;;;4.63;3.30;;;;;;;;;;5329568;27;20617;-85
2022/07/13 02:31:13;;;;;;;5.53;3.20;;;;;;;;;;5313773;27;20401;-85
2022/07/13 02:33:44;;;;;;;4.82;3.28;;;;;;;;;;5312032;27;20158;-85
2022/07/13 02:36:18;;;;;;;4.97;3.10;;;;;;;;;;5324598;27;20052;-84
2022/07/13 02:38:49;;;;;;;3.85;3.13;;;;;;;;;;5327456;27;20026;-85
2022/07/13 02:41:21;;;;;;;3.97;3.20;;;;;;;;;;5329509;27;20064;-85
2022/07/13 02:43:52;;;;;;;5.60;3.00;;;;;;;;;;5326809;27;20077;-85
2022/07/13 02:46:23;;;;;;;5.50;2.95;;;;;;;;;;5316012;27;20360;-85
2022/07/13 02:48:58;;;;;;;3.95;3.35;;;;;;;;;;5309204;27;20113;-85
2022/07/13 02:51:29;;;;;;;3.65;3.20;;;;;;;;;;5318464;27;20226;-86
2022/07/13 02:54:04;;;;;;;5.00;3.05;;;;;;;;;;5326080;27;20166;-85
2022/07/13 02:56:35;;;;;;;7.20;3.03;;;;;;;;;;5306448;27;20399;-85
2022/07/13 02:59:12;;;;;;;4.85;2.92;;;;;;;;;;5330548;27;20021;-85
2022/07/13 03:01:44;;;;;;;4.80;3.05;;;;;;;;;;5332883;27;21270;-85
2022/07/13 03:04:18;;;;;;;9.57;2.97;;;;;;;;;;5335895;27;20028;-85
2022/07/13 03:06:49;;;;;;;6.80;2.92;;;;;;;;;;5333217;27;20135;-83
2022/07/13 03:09:21;;;;;;;4.55;2.83;;;;;;;;;;5326986;27;20113;-84
2022/07/13 03:11:52;;;;;;;6.60;3.10;;;;;;;;;;5330189;27;20024;-83
2022/07/13 03:14:24;;;;;;;3.97;3.08;;;;;;;;;;5336417;27;20093;-83
2022/07/13 03:16:55;;;;;;;4.43;3.10;;;;;;;;;;5328330;27;20911;-84
2022/07/13 03:19:26;;;;;;;4.13;2.60;;;;;;;;;;5328872;27;20040;-82
2022/07/13 03:21:57;;;;;;;6.78;2.95;;;;;;;;;;5336240;27;20113;-83
2022/07/13 03:24:29;;;;;;;5.57;3.30;;;;;;;;;;5336199;27;20023;-83
2022/07/13 03:27:00;;;;;;;4.32;3.33;;;;;;;;;;5334670;27;20617;-83
2022/07/13 03:29:32;;;;;;;6.25;3.05;;;;;;;;;;5312165;27;20131;-83
2022/07/13 03:32:03;;;;;;;5.70;2.75;;;;;;;;;;5318073;27;20063;-83
2022/07/13 03:34:34;;;;;;;5.60;3.28;;;;;;;;;;5329046;27;20107;-83
2022/07/13 03:37:07;;;;;;;3.10;2.65;;;;;;;;;;5313447;27;20028;-83
2022/07/13 03:39:39;;;;;;;3.80;2.90;;;;;;;;;;5308276;27;20032;-83
2022/07/13 03:42:10;;;;;;;4.17;3.30;;;;;;;;;;5328727;27;21351;-82
2022/07/13 03:44:41;;;;;;;4.22;3.10;;;;;;;;;;5330561;27;20393;-83
2022/07/13 03:47:12;;;;;;;4.97;3.20;;;;;;;;;;5332374;27;20027;-82
2022/07/13 03:49:43;;;;;;;7.03;3.40;;;;;;;;;;5330586;27;20652;-83
2022/07/13 03:52:15;;;;;;;5.23;3.10;;;;;;;;;;5311207;27;20040;-83
2022/07/13 03:54:46;;;;;;;4.68;2.97;;;;;;;;;;5308091;27;20342;-84
2022/07/13 03:57:17;;;;;;;4.65;3.22;;;;;;;;;;5328543;27;20024;-83
2022/07/13 03:59:48;;;;;;;14.13;4.00;;;;;;;;;;5327762;27;20031;-83
2022/07/13 04:02:19;;;;;;;6.50;3.60;;;;;;;;;;5329452;27;20040;-83
2022/07/13 04:04:51;;;;;;;7.90;3.33;;;;;;;;;;5309467;27;20061;-83
2022/07/13 04:07:22;;;;;;;9.63;3.63;;;;;;;;;;5316519;27;20776;-84
2022/07/13 04:09:53;;;;;;;8.23;3.97;;;;;;;;;;5334613;27;20104;-84
2022/07/13 04:12:24;;;;;;;9.80;4.30;;;;;;;;;;5314649;27;20043;-84
2022/07/13 04:14:56;;;;;;;10.40;3.73;;;;;;;;;;5330529;27;20089;-84
2022/07/13 04:17:27;;;;;;;11.65;4.13;;;;;;;;;;5331064;27;20380;-83
2022/07/13 04:19:58;;;;;;;12.53;4.10;;;;;;;;;;5333315;27;20573;-83
2022/07/13 04:22:29;;;;;;;9.23;3.53;;;;;;;;;;5330577;27;20031;-82
2022/07/13 04:25:01;;;;;;;6.97;3.60;;;;;;;;;;5327742;27;20036;-82
2022/07/13 04:27:32;;;;;;;7.38;3.13;;;;;;;;;;5331207;27;20016;-83
2022/07/13 04:30:03;;;;;;;26.37;5.30;;;;;;;;;;5330594;27;20032;-83
2022/07/13 04:32:34;;;;;;;15.20;4.22;;;;;;;;;;5329619;27;20024;-83
2022/07/13 04:35:06;;;;;;;7.90;3.70;;;;;;;;;;5310314;27;20044;-84
2022/07/13 04:37:37;;;;;;;7.50;3.20;;;;;;;;;;5313465;27;20277;-83
2022/07/13 04:40:08;;;;;;;8.02;3.40;;;;;;;;;;5329442;27;20062;-83
2022/07/13 04:42:40;;;;;;;14.55;3.53;;;;;;;;;;5327556;27;20395;-83
2022/07/13 04:45:11;;;;;;;6.13;3.60;;;;;;;;;;5311068;27;20066;-84
2022/07/13 04:47:42;;;;;;;11.83;3.30;;;;;;;;;;5311006;27;20274;-84
2022/07/13 04:50:13;;;;;;;7.90;3.65;;;;;;;;;;5312670;27;20297;-84
2022/07/13 04:52:45;;;;;;;12.33;3.70;;;;;;;;;;5329131;27;20117;-83
2022/07/13 04:55:16;;;;;;;7.18;3.22;;;;;;;;;;5308247;27;20036;-84
2022/07/13 04:57:48;;;;;;;9.35;3.10;;;;;;;;;;5307925;27;20028;-83
2022/07/13 05:00:19;;;;;;;8.35;3.50;;;;;;;;;;5332276;27;20028;-83
2022/07/13 05:02:50;;;;;;;12.73;3.30;;;;;;;;;;5331754;27;20388;-82
2022/07/13 05:05:21;;;;;;;14.32;3.50;;;;;;;;;;5326897;27;20092;-82
2022/07/13 05:07:53;;;;;;;10.43;3.22;;;;;;;;;;5325086;27;20169;-82
2022/07/13 05:10:27;;;;;;;17.33;4.97;;;;;;;;;;5319028;27;20395;-83
2022/07/13 05:12:59;;;;;;;6.82;3.05;;;;;;;;;;5327183;27;20119;-82
2022/07/13 05:15:30;;;;;;;9.13;3.03;;;;;;;;;;5330683;27;20368;-83
2022/07/13 05:18:04;;;;;;;15.97;3.87;;;;;;;;;;5325356;27;20362;-83
2022/07/13 05:20:35;;;;;;;13.55;3.42;;;;;;;;;;5330434;27;20037;-84
2022/07/13 05:23:06;;;;;;;7.70;3.20;;;;;;;;;;5327582;27;20023;-83
2022/07/13 05:25:37;;;;;;;9.03;3.00;;;;;;;;;;5325994;27;20032;-83
2022/07/13 05:28:09;;;;;;;4.93;3.00;;;;;;;;;;5326688;27;20587;-82
2022/07/13 05:30:40;;;;;;;8.27;2.90;;;;;;;;;;5328382;27;20303;-82
2022/07/13 05:33:11;;;;;;;4.97;2.45;;;;;;;;;;5325110;27;20095;-83
2022/07/13 05:35:42;;;;;;;7.10;2.67;;;;;;;;;;5327166;27;20047;-83
2022/07/13 05:38:14;;;;;;;6.10;2.80;;;;;;;;;;5323797;27;20511;-82
2022/07/13 05:40:46;;;;;;;7.55;2.92;;;;;;;;;;5330194;27;20417;-82
2022/07/13 05:43:17;;;;;;;7.35;2.53;;;;;;;;;;5303567;27;20388;-82
2022/07/13 05:45:51;;;;;;;7.60;3.30;;;;;;;;;;5327141;27;20036;-82
2022/07/13 05:48:22;;;;;;;6.70;2.85;;;;;;;;;;5323899;27;20039;-82
2022/07/13 05:50:53;;;;;;;5.70;2.80;;;;;;;;;;5331611;27;20095;-82
2022/07/13 05:53:25;;;;;;;4.47;3.03;;;;;;;;;;5325623;27;20266;-82
2022/07/13 05:55:56;;;;;;;4.30;2.43;;;;;;;;;;5322881;27;20557;-83
2022/07/13 05:58:27;;;;;;;5.47;2.75;;;;;;;;;;5324648;27;20052;-84
2022/07/13 06:01:01;;;;;;;5.75;2.67;;;;;;;;;;5327454;27;20088;-84
2022/07/13 06:03:32;;;;;;;6.28;2.88;;;;;;;;;;5328571;27;20020;-84
2022/07/13 06:06:04;;;;;;;7.47;2.60;;;;;;;;;;5328606;27;20031;-84
2022/07/13 06:08:36;;;;;;;5.50;2.80;;;;;;;;;;5333246;27;20274;-84
2022/07/13 06:11:07;;;;;;;4.43;2.38;;;;;;;;;;5313914;27;20062;-84
2022/07/13 06:13:40;;;;;;;5.20;2.88;;;;;;;;;;5327028;27;20428;-84
2022/07/13 06:16:12;;;;;;;4.00;2.90;;;;;;;;;;5331038;27;20031;-84
2022/07/13 06:18:43;;;;;;;2.83;2.53;;;;;;;;;;5325077;27;20041;-84
2022/07/13 06:21:14;;;;;;;6.97;3.07;;;;;;;;;;5334503;27;20113;-85
2022/07/13 06:23:45;;;;;;;5.37;2.57;;;;;;;;;;5345426;27;20020;-84
2022/07/13 06:26:16;;;;;;;4.87;2.80;;;;;;;;;;5356119;27;20115;-85
2022/07/13 06:28:48;;;;;;;5.15;3.10;;;;;;;;;;5345612;27;20032;-85
2022/07/13 06:31:19;;;;;;;3.35;2.80;;;;;;;;;;5330226;27;20024;-84
2022/07/13 06:33:52;;;;;;;7.93;2.53;;;;;;;;;;5331179;27;20095;-84
2022/07/13 06:36:23;;;;;;;7.75;3.97;;;;;;;;;;5310409;27;20619;-85
2022/07/13 06:38:57;;;;;;;8.00;3.10;;;;;;;;;;5307465;27;20020;-84
2022/07/13 06:41:28;;;;;;;8.95;2.67;;;;;;;;;;5325738;27;20292;-84
2022/07/13 06:43:59;;;;;;;3.88;2.55;;;;;;;;;;5324487;27;20480;-85
2022/07/13 06:46:30;;;;;;;6.47;2.97;;;;;;;;;;5326716;27;20036;-85
2022/07/13 06:49:02;;;;;;;3.80;2.93;;;;;;;;;;5304824;27;20231;-85
2022/07/13 06:51:33;;;;;;;9.05;2.83;;;;;;;;;;5327416;27;20614;-85
2022/07/13 06:54:04;;;;;;;5.90;2.60;;;;;;;;;;5326052;27;20025;-85
2022/07/13 06:56:36;;;;;;;4.85;2.80;;;;;;;;;;5326403;27;20254;-85
2022/07/13 06:59:07;;;;;;;4.90;2.80;;;;;;;;;;5330997;27;20054;-85
2022/07/13 07:01:38;;;;;;;5.67;2.50;;;;;;;;;;5307782;27;20195;-85
2022/07/13 07:04:09;;;;;;;5.97;2.70;;;;;;;;;;5327376;27;20103;-85
2022/07/13 07:06:40;;;;;;;11.50;3.72;;;;;;;;;;5329024;27;20081;-85
2022/07/13 07:09:14;;;;;;;7.20;3.83;;;;;;;;;;5327053;27;20070;-85
2022/07/13 07:11:46;;;;;;;9.73;3.70;;;;;;;;;;5325535;27;21064;-85
2022/07/13 07:14:17;;;;;;;4.75;3.08;;;;;;;;;;5327312;27;20043;-85
2022/07/13 07:16:48;;;;;;;8.43;4.10;;;;;;;;;;5322889;27;20170;-84
2022/07/13 07:19:20;;;;;;;10.40;3.97;;;;;;;;;;5327597;27;20375;-85
2022/07/13 07:21:51;;;;;;;9.15;4.00;;;;;;;;;;5325517;27;20191;-85
2022/07/13 07:24:22;;;;;;;11.52;4.28;;;;;;;;;;5326180;27;20110;-85
2022/07/13 07:26:54;;;;;;;9.27;4.40;;;;;;;;;;5308260;27;20151;-85
2022/07/13 07:29:25;;;;;;;8.93;4.20;;;;;;;;;;5326337;27;20027;-85
2022/07/13 07:31:56;;;;;;;8.77;3.77;;;;;;;;;;5326568;27;20633;-85
2022/07/13 07:34:30;;;;;;;9.13;4.13;;;;;;;;;;5324698;27;20320;-85
2022/07/13 07:37:01;;;;;;;8.57;3.92;;;;;;;;;;5331831;27;20290;-85
2022/07/13 07:39:34;;;;;;;8.85;3.78;;;;;;;;;;5338975;27;20028;-85
2022/07/13 07:42:06;;;;;;;9.68;3.47;;;;;;;;;;5332002;27;20028;-85
2022/07/13 07:44:37;;;;;;;11.40;3.80;;;;;;;;;;5316841;27;20077;-85
2022/07/13 07:47:08;;;;;;;7.70;3.90;;;;;;;;;;5328290;27;20622;-85
2022/07/13 07:49:40;;;;;;;9.80;4.05;;;;;;;;;;5328487;27;20024;-85
2022/07/13 07:52:11;;;;;;;6.13;4.07;;;;;;;;;;5328631;27;20044;-86
2022/07/13 07:54:42;;;;;;;4.90;3.70;;;;;;;;;;5330205;27;20171;-85
2022/07/13 07:57:14;;;;;;;7.18;4.32;;;;;;;;;;5343971;27;20035;-86
2022/07/13 07:59:45;;;;;;;8.77;4.40;;;;;;;;;;5345236;27;20349;-86
2022/07/13 08:02:16;;;;;;;7.77;4.07;;;;;;;;;;5315438;27;20032;-86
2022/07/13 08:04:49;;;;;;;7.77;4.20;;;;;;;;;;5331743;27;20399;-86
2022/07/13 08:07:20;;;;;;;8.85;4.55;;;;;;;;;;5330474;27;20316;-86
2022/07/13 08:09:51;;;;;;;12.00;4.50;;;;;;;;;;5323212;27;20422;-86
2022/07/13 08:12:22;;;;;;;12.37;5.33;;;;;;;;;;5320912;27;20028;-86
2022/07/13 08:14:53;;;;;;;9.50;4.13;;;;;;;;;;5339600;27;20108;-85
2022/07/13 08:17:24;;;;;;;10.60;4.30;;;;;;;;;;5348742;27;20032;-86
2022/07/13 08:19:56;;;;;;;10.80;4.73;;;;;;;;;;5353814;27;20031;-86
2022/07/13 08:22:27;;;;;;;11.30;4.13;;;;;;;;;;5342604;27;20032;-85
2022/07/13 08:25:02;;;;;;;7.78;4.10;;;;;;;;;;5340095;27;20082;-86
2022/07/13 08:27:33;;;;;;;8.25;4.30;;;;;;;;;;5324956;27;20031;-85
2022/07/13 08:30:05;;;;;;;7.72;4.40;;;;;;;;;;5328240;27;20020;-85
2022/07/13 08:32:36;;;;;;;9.57;3.65;;;;;;;;;;5322894;27;20114;-85
2022/07/13 08:40:48;;;;;;;6.85;3.22;;;;;;;;;;5333903;27;20028;-85
2022/07/13 08:43:20;;;;;;;5.97;3.20;;;;;;;;;;5347698;27;20401;-85
2022/07/13 08:45:51;;;;;;;5.35;3.70;;;;;;;;;;5329906;27;20115;-85
2022/07/13 08:48:29;;;;;;;8.47;3.80;;;;;;;;;;5327076;27;20551;-85
2022/07/13 08:51:00;;;;;;;6.35;2.83;;;;;;;;;;5329546;27;20307;-86
2022/07/13 08:53:32;;;;;;;7.45;3.17;;;;;;;;;;5322816;28;20024;-86
2022/07/13 08:56:03;;;;;;;9.57;3.17;;;;;;;;;;5307704;28;20044;-86
2022/07/13 08:58:35;;;;;;;6.38;2.63;;;;;;;;;;5316503;27;20459;-86
2022/07/13 09:01:10;;;;;;;4.82;2.42;;;;;;;;;;5319286;27;20604;-86
2022/07/13 09:03:42;;;;;;;6.47;2.60;;;;;;;;;;5328442;27;20387;-85
2022/07/13 09:06:32;;;;;;;9.00;2.95;;;;;;;;;;5310375;28;20031;-85
2022/07/13 09:09:16;;;;;;;7.90;2.60;;;;;;;;;;5324843;27;20418;-85
2022/07/13 09:11:47;;;;;;;3.05;2.20;;;;;;;;;;5332623;27;20429;-85
2022/07/13 09:14:27;;;;;;;4.15;2.60;;;;;;;;;;5307628;28;20020;-86
2022/07/13 09:16:58;;;;;;;5.43;2.47;;;;;;;;;;5307179;28;20123;-86
2022/07/13 09:19:38;;;;;;;10.27;2.93;;;;;;;;;;5335618;27;20098;-85
2022/07/13 09:22:10;;;;;;;9.43;2.45;;;;;;;;;;5331578;27;20385;-85
2022/07/13 09:24:45;;;;;;;6.95;2.47;;;;;;;;;;5323795;27;20428;-85
2022/07/13 09:27:17;;;;;;;8.50;3.20;;;;;;;;;;5368769;27;20011;-86
2022/07/13 09:29:49;;;;;;;8.35;3.10;;;;;;;;;;5346368;27;20522;-85
2022/07/13 09:32:23;;;;;;;7.18;3.53;;;;;;;;;;5334073;27;20028;-85
2022/07/13 09:35:03;;;;;;;8.82;3.05;;;;;;;;;;5307268;27;20093;-85
2022/07/13 09:37:40;;;;;;;4.45;3.03;;;;;;;;;;5326297;28;20472;-85
2022/07/13 09:40:17;;;;;;;6.32;3.13;;;;;;;;;;5323212;27;20050;-86
2022/07/13 09:46:08;;;;;;;10.32;3.08;;;;;;;;;;5318597;27;20115;-86
2022/07/13 09:48:51;;;;;;;5.22;1.73;;;;;;;;;;5332488;27;20027;-84
2022/07/13 09:51:32;;;;;;;6.10;1.85;;;;;;;;;;5319926;27;20039;-86
2022/07/13 09:54:22;;;;;;;6.75;2.08;;;;;;;;;;5322071;28;20498;-86
2022/07/13 09:56:57;;;;;;;9.27;1.98;;;;;;;;;;5313654;28;20048;-85
2022/07/13 09:59:37;;;;;;;3.40;1.73;;;;;;;;;;5307021;28;20016;-85
2022/07/13 10:02:12;;;;;;;4.55;2.10;;;;;;;;;;5325452;27;20415;-85
2022/07/13 10:04:46;;;;;;;5.45;2.13;;;;;;;;;;5346799;27;20387;-85
2022/07/13 10:07:19;;;;;;;4.50;2.20;;;;;;;;;;5346836;27;20422;-85
2022/07/13 10:10:01;;;;;;;7.10;2.20;;;;;;;;;;5345768;27;20049;-85
2022/07/13 10:12:42;;;;;;;6.22;2.22;;;;;;;;;;5321253;27;20027;-85
2022/07/13 10:15:14;;;;;;;8.23;2.30;;;;;;;;;;5327667;27;20039;-85
2022/07/13 10:17:59;;;;;;;6.10;2.40;;;;;;;;;;5327592;27;20057;-85
2022/07/13 10:20:41;;;;;;;6.40;1.90;;;;;;;;;;5317844;28;20028;-86
2022/07/13 10:23:26;;;;;;;3.10;2.03;;;;;;;;;;5317192;28;20032;-85
2022/07/13 10:26:06;;;;;;;6.22;2.10;;;;;;;;;;5322614;27;20115;-84
2022/07/13 10:28:48;;;;;;;;;;;;;;;;;;;;;
2022/07/13 10:31:31;;;;;;;5.32;1.77;;;;;;;;;;5329089;27;41609;-85
2022/07/13 10:34:10;;;;;;;5.40;2.20;;;;;;;;;;5322639;27;20039;-85
2022/07/13 10:37:05;;;;;;;4.72;1.60;;;;;;;;;;5320347;27;20040;-85
2022/07/13 10:39:37;;;;;;;4.40;2.00;;;;;;;;;;5318627;28;20054;-85
2022/07/13 10:42:31;;;;;;;2.95;1.88;;;;;;;;;;5324709;28;20024;-85
2022/07/13 10:45:28;;;;;;;3.78;2.00;;;;;;;;;;5311422;27;20036;-85
2022/07/13 10:48:05;;;;;;;4.18;1.70;;;;;;;;;;5314891;27;20040;-85
2022/07/13 10:50:51;;;;;;;2.13;1.73;;;;;;;;;;5309532;27;20032;-85
2022/07/13 10:53:37;;;;;;;4.82;1.70;;;;;;;;;;5327098;27;20113;-85
2022/07/13 10:56:15;;;;;;;3.10;1.85;;;;;;;;;;5307117;27;20040;-85
2022/07/13 10:58:50;;;;;;;8.20;2.25;;;;;;;;;;5312631;27;20040;-85
2022/07/13 11:01:42;;;;;;;4.28;2.22;;;;;;;;;;5308396;27;20035;-85
2022/07/13 11:07:42;;;;;;;4.70;2.00;;;;;;;;;;5328976;27;20043;-85
2022/07/13 11:10:26;;;;;;;6.32;1.95;;;;;;;;;;5307718;27;20132;-85
2022/07/13 11:13:28;;;;;;;6.28;1.80;;;;;;;;;;5310058;27;20109;-85
2022/07/13 11:16:05;;;;;;;7.68;2.15;;;;;;;;;;5306503;27;20048;-85
2022/07/13 11:18:40;;;;;;;6.80;2.17;;;;;;;;;;5328804;27;20110;-85
2022/07/13 11:21:16;;;;;;;5.57;2.22;;;;;;;;;;5307954;27;20040;-85
2022/07/13 11:26:44;;;;;;;;;;;;;;;;;;5346787;27;20687;-85
2022/07/13 11:29:26;;;;;;;3.33;1.60;;;;;;;;;;5323982;27;19919;-85
2022/07/13 11:32:07;;;;;;;5.70;2.03;;;;;;;;;;5325052;27;20585;-85
2022/07/13 11:34:47;;;;;;;4.65;2.13;;;;;;;;;;5324120;27;20035;-85
2022/07/13 11:37:26;;;;;;;3.65;1.52;;;;;;;;;;5337897;27;20058;-85
2022/07/13 11:40:04;;;;;;;5.53;1.70;;;;;;;;;;5314043;27;20058;-85
2022/07/13 11:42:38;;;;;;;4.40;1.58;;;;;;;;;;5310057;27;20568;-84
2022/07/13 11:45:13;;;;;;;2.30;1.50;;;;;;;;;;5327472;27;20032;-85
2022/07/13 11:47:45;;;;;;;4.93;1.58;;;;;;;;;;5308039;27;20050;-84
2022/07/13 11:50:19;;;;;;;6.13;2.30;;;;;;;;;;5327533;27;20019;-84
2022/07/13 11:53:01;;;;;;;6.28;1.98;;;;;;;;;;5326777;27;20032;-85
2022/07/13 11:55:36;;;;;;;4.60;2.10;;;;;;;;;;5309371;27;20499;-85
2022/07/13 11:58:10;;;;;;;;;;;;;;;;;;5312522;27;20036;-85
2022/07/13 12:00:57;;;;;;;4.15;1.98;;;;;;;;;;5329531;27;19927;-86
2022/07/13 12:03:58;;;;;;;4.50;1.80;;;;;;;;;;5308742;28;20024;-86
2022/07/13 12:06:30;;;;;;;3.22;1.48;;;;;;;;;;5281440;28;20567;-85
2022/07/13 12:09:24;;;;;;;8.25;2.00;;;;;;;;;;5335089;27;20106;-85
2022/07/13 12:12:07;;;;;;;5.63;1.80;;;;;;;;;;5311689;27;20461;-85
2022/07/13 12:14:42;;;;;;;6.28;1.45;;;;;;;;;;5314932;27;20146;-85
2022/07/13 12:17:16;;;;;;;;;;;;;;;;;;5321497;27;20039;-85
2022/07/13 12:19:48;;;;;;;4.70;1.90;;;;;;;;;;5322902;27;19970;-85
2022/07/13 12:22:28;;;;;;;4.57;1.33;;;;;;;;;;5319732;27;20194;-85
2022/07/13 12:25:03;;;;;;;7.05;1.75;;;;;;;;;;5324729;27;20472;-85
2022/07/13 12:27:39;;;;;;;6.35;1.70;;;;;;;;;;5348703;27;20027;-85
2022/07/13 12:30:16;;;;;;;5.28;1.80;;;;;;;;;;5343324;27;20392;-85
2022/07/13 12:33:06;;;;;;;3.72;1.88;;;;;;;;;;5329358;27;20042;-85
2022/07/13 12:35:38;;;;;;;5.82;1.85;;;;;;;;;;5315919;27;20043;-83
2022/07/13 12:38:19;;;;;;;4.88;1.70;;;;;;;;;;5313367;27;20028;-84
2022/07/13 12:41:08;;;;;;;5.40;1.83;;;;;;;;;;5332820;27;20047;-84
2022/07/13 12:44:00;;;;;;;4.63;1.73;;;;;;;;;;5327073;27;20476;-85
2022/07/13 12:47:10;;;;;;;4.15;1.80;;;;;;;;;;5306658;28;20052;-85
2022/07/13 12:49:47;;;;;;;9.35;2.17;;;;;;;;;;5240274;28;20030;-85
2022/07/13 12:52:34;;;;;;;;;;;;;;;;;;;;;
2022/07/13 12:55:13;;;;;;;5.30;1.92;;;;;;;;;;5258257;28;39797;-85
2022/07/13 12:58:00;;;;;;;4.07;1.30;;;;;;;;;;5243544;28;20038;-85
2022/07/13 13:00:40;;;;;;;4.63;1.55;;;;;;;;;;5277965;27;20047;-85
2022/07/13 13:06:26;;;;;;;3.40;1.30;;;;;;;;;;5325756;28;20035;-84
2022/07/13 13:09:07;;;;;;;6.75;1.50;;;;;;;;;;5307805;28;20035;-85
2022/07/13 13:11:49;;;;;;;4.65;1.60;;;;;;;;;;5307388;28;20030;-84
2022/07/13 13:14:41;;;;;;;6.47;1.60;;;;;;;;;;5307085;28;20127;-85
2022/07/13 13:17:18;;;;;;;8.68;1.90;;;;;;;;;;5323677;27;20048;-85
2022/07/13 13:19:56;;;;;;;8.98;1.77;;;;;;;;;;5328887;27;20122;-85
2022/07/13 13:22:33;;;;;;;6.45;1.48;;;;;;;;;;5316422;28;20032;-85
2022/07/13 13:25:05;;;;;;;3.08;1.70;;;;;;;;;;5329730;27;20034;-85
2022/07/13 13:31:20;;;;;;;4.90;1.73;;;;;;;;;;5368962;27;20464;-86
2022/07/13 13:34:00;;;;;;;3.60;1.42;;;;;;;;;;5331121;27;20496;-86
2022/07/13 13:36:32;;;;;;;3.53;1.63;;;;;;;;;;5304947;28;20040;-86
2022/07/13 13:39:20;;;;;;;4.07;1.50;;;;;;;;;;5307511;28;20392;-86
2022/07/13 13:42:16;;;;;;;;;;;;;;;;;;;;;
2022/07/13 13:45:04;;;;;;;6.78;1.63;;;;;;;;;;5328167;28;40186;-86
2022/07/13 13:47:52;;;;;;;5.22;1.30;;;;;;;;;;5307239;28;20028;-85
2022/07/13 13:50:33;;;;;;;7.97;1.98;;;;;;;;;;5307869;28;20036;-85
2022/07/13 13:53:17;;;;;;;10.63;2.03;;;;;;;;;;5312425;27;20126;-85
2022/07/13 13:56:08;;;;;;;3.78;1.90;;;;;;;;;;5328138;27;20356;-85
2022/07/13 13:59:04;;;;;;;2.45;1.80;;;;;;;;;;5327623;27;20093;-86
2022/07/13 14:05:42;;;;;;;;;;;;;;;;;;;;;
2022/07/13 14:08:51;;;;;;;2.85;2.10;;;;;;;;;;5345881;27;41095;-84
2022/07/13 14:11:36;;;;;;;6.32;1.88;;;;;;;;;;5240581;28;20041;-84
2022/07/13 14:14:27;;;;;;;4.65;1.77;;;;;;;;;;5340183;27;20063;-84
2022/07/13 14:17:08;;;;;;;5.00;1.85;;;;;;;;;;5327497;27;20471;-84
2022/07/13 14:20:11;;;;;;;6.43;1.30;;;;;;;;;;5318193;27;20069;-84
2022/07/13 14:23:09;;;;;;;12.93;1.85;;;;;;;;;;5321720;27;20081;-85
2022/07/13 14:25:53;;;;;;;4.68;1.75;;;;;;;;;;5343865;27;20033;-84
2022/07/13 14:28:28;;;;;;;5.57;1.55;;;;;;;;;;5348953;27;20039;-84
2022/07/13 14:31:15;;;;;;;3.90;1.10;;;;;;;;;;5348995;27;20031;-84
2022/07/13 14:33:52;;;;;;;3.03;1.10;;;;;;;;;;5321379;27;20063;-85
2022/07/13 14:36:44;;;;;;;4.45;1.13;;;;;;;;;;5305697;28;20135;-85
2022/07/13 14:39:21;;;;;;;1.88;1.10;;;;;;;;;;5328690;28;20127;-84
2022/07/13 14:42:19;;;;;;;2.33;1.20;;;;;;;;;;5302004;28;20084;-85
2022/07/13 14:44:56;;;;;;;3.92;1.38;;;;;;;;;;5322886;27;20625;-84
2022/07/13 14:51:20;;;;;;;2.28;1.10;;;;;;;;;;5292283;28;20020;-85
2022/07/13 14:57:50;;;;;;;;;;;;;;;;;;;;;
2022/07/13 15:03:57;;;;;;;5.70;1.50;;;;;;;;;;5276149;28;20043;-85
2022/07/13 15:10:12;;;;;;;1.88;1.48;;;;;;;;;;5245203;28;20032;-85
2022/07/13 15:19:09;;;;;;;;;;;;;;;;;;;;;
2022/07/13 15:22:12;;;;;;;4.38;1.70;;;;;;;;;;5272585;28;39939;-85
2022/07/13 15:25:23;;;;;;;5.68;2.20;;;;;;;;;;5275749;28;20384;-85
2022/07/13 15:31:25;;;;;;;5.20;2.00;;;;;;;;;;5303718;28;20020;-84
2022/07/13 15:34:33;;;;;;;4.10;1.88;;;;;;;;;;5310912;28;20047;-85
2022/07/13 15:44:01;;;;;;;;;;;;;;;;;;;;;
2022/07/13 15:47:12;;;;;;;3.83;2.33;;;;;;;;;;5277762;28;39303;-84
2022/07/13 15:50:19;;;;;;;5.60;2.67;;;;;;;;;;5286366;28;20515;-85
2022/07/13 15:56:38;;;;;;;6.18;2.80;;;;;;;;;;5307741;28;20064;-85
2022/07/13 15:59:34;;;;;;;4.35;2.55;;;;;;;;;;5271413;28;20561;-86
2022/07/13 16:02:39;;;;;;;2.88;2.33;;;;;;;;;;5288411;28;21388;-85
2022/07/13 16:09:34;;;;;;;5.90;2.67;;;;;;;;;;5198074;28;20066;-85
2022/07/13 16:16:11;;;;;;;4.10;2.30;;;;;;;;;;5219381;28;20053;-86
2022/07/13 16:49:00;;;;;;;;;;;;;;;;;;;;;
2022/07/13 16:52:19;;;;;;;;;;;;;;;;;;;;;
2022/07/13 17:11:20;;;;;;;4.70;2.38;;;;;;;;;;5157963;28;20434;-86
2022/07/13 17:20:49;;;;;;;;;;;;;;;;;;;;;
2022/07/13 18:03:51;;;;;;;2.80;1.85;;;;;;;;;;5096772;29;20128;-86
2022/07/13 18:13:43;;;;;;;;;;;;;;;;;;;;;
2022/07/13 18:26:35;;;;;;;;;;;;;;;;;;;;;
2022/07/13 18:29:38;;;;;;;7.60;2.05;;;;;;;;;;5056973;29;42229;-86
2022/07/13 18:35:55;;;;;;;7.40;3.00;;;;;;;;;;5156794;28;20103;-87
2022/07/13 18:56:35;;;;;;;;;;;;;;;;;;;;;
2022/07/13 19:14:51;;;;;;;10.38;3.22;;;;;;;;;;5303239;28;20053;-86
2022/07/13 19:41:25;;;;;;;;;;;;;;;;;;;;;
2022/07/13 20:00:47;;;;;;;;;;;;;;;;;;;;;
2022/07/13 20:16:21;;;;;;;;;;;;;;;;;;;;;
2022/07/13 20:22:29;;;;;;;14.65;3.55;;;;;;;;;;5203819;28;20109;-85
2022/07/13 20:25:47;;;;;;;;;;;;;;;;;;;;;
2022/07/13 20:38:10;;;;;;;;;;;;;;;;;;;;;
2022/07/13 21:13:43;;;;;;;16.75;3.05;;;;;;;;;;5211743;28;20053;-86